sensor_id;sensor_type;location;lat;lon;timestamp;temperature;humidity
2407;DHT22;37709;53.480;9.688;2022-07-06T00:00:30;12.60;99.90
2407;DHT22;37709;53.480;9.688;2022-07-06T00:02:58;12.50;99.90
2407;DHT22;37709;53.480;9.688;2022-07-06T00:05:25;12.50;99.90
2407;DHT22;37709;53.480;9.688;2022-07-06T00:07:53;12.50;99.90
2407;DHT22;37709;53.480;9.688;2022-07-06T00:10:21;12.40;99.90
2407;DHT22;37709;53.480;9.688;2022-07-06T00:12:48;12.50;99.90
2407;DHT22;37709;53.480;9.688;2022-07-06T00:15:15;12.50;99.90
2407;DHT22;37709;53.480;9.688;2022-07-06T00:17:43;12.40;99.90
2407;DHT22;37709;53.480;9.688;2022-07-06T00:20:10;12.40;99.90
2407;DHT22;37709;53.480;9.688;2022-07-06T00:22:38;12.40;99.90
2407;DHT22;37709;53.480;9.688;2022-07-06T00:25:05;12.40;99.90
2407;DHT22;37709;53.480;9.688;2022-07-06T00:27:33;12.40;99.90
2407;DHT22;37709;53.480;9.688;2022-07-06T00:30:00;12.30;99.90
2407;DHT22;37709;53.480;9.688;2022-07-06T00:32:28;12.30;99.90
2407;DHT22;37709;53.480;9.688;2022-07-06T00:34:56;12.30;99.90
2407;DHT22;37709;53.480;9.688;2022-07-06T00:37:23;12.30;99.90
2407;DHT22;37709;53.480;9.688;2022-07-06T00:39:51;12.40;99.90
2407;DHT22;37709;53.480;9.688;2022-07-06T00:42:18;12.40;99.90
2407;DHT22;37709;53.480;9.688;2022-07-06T00:44:46;12.50;99.90
2407;DHT22;37709;53.480;9.688;2022-07-06T00:47:13;12.50;99.90
2407;DHT22;37709;53.480;9.688;2022-07-06T00:49:40;12.50;99.90
2407;DHT22;37709;53.480;9.688;2022-07-06T00:52:31;12.50;99.90
2407;DHT22;37709;53.480;9.688;2022-07-06T00:54:58;12.60;99.90
2407;DHT22;37709;53.480;9.688;2022-07-06T00:57:29;12.60;99.90
2407;DHT22;37709;53.480;9.688;2022-07-06T00:59:57;12.60;99.90
2407;DHT22;37709;53.480;9.688;2022-07-06T01:02:25;12.60;99.90
2407;DHT22;37709;53.480;9.688;2022-07-06T01:04:52;12.60;99.90
2407;DHT22;37709;53.480;9.688;2022-07-06T01:07:20;12.60;99.90
2407;DHT22;37709;53.480;9.688;2022-07-06T01:09:48;12.60;99.90
2407;DHT22;37709;53.480;9.688;2022-07-06T01:12:16;12.60;99.90
2407;DHT22;37709;53.480;9.688;2022-07-06T01:14:43;12.70;99.90
2407;DHT22;37709;53.480;9.688;2022-07-06T01:17:13;12.70;99.90
2407;DHT22;37709;53.480;9.688;2022-07-06T01:19:41;12.70;99.90
2407;DHT22;37709;53.480;9.688;2022-07-06T01:22:10;12.70;99.90
2407;DHT22;37709;53.480;9.688;2022-07-06T01:24:41;12.70;99.90
2407;DHT22;37709;53.480;9.688;2022-07-06T01:27:09;12.70;99.90
2407;DHT22;37709;53.480;9.688;2022-07-06T01:29:36;12.70;99.90
2407;DHT22;37709;53.480;9.688;2022-07-06T01:32:04;12.70;99.90
2407;DHT22;37709;53.480;9.688;2022-07-06T01:34:32;12.70;99.90
2407;DHT22;37709;53.480;9.688;2022-07-06T01:36:59;12.70;99.90
2407;DHT22;37709;53.480;9.688;2022-07-06T01:39:27;12.70;99.90
2407;DHT22;37709;53.480;9.688;2022-07-06T01:41:54;12.70;99.90
2407;DHT22;37709;53.480;9.688;2022-07-06T01:44:22;12.70;99.90
2407;DHT22;37709;53.480;9.688;2022-07-06T01:46:50;12.70;99.90
2407;DHT22;37709;53.480;9.688;2022-07-06T01:49:17;12.70;99.90
2407;DHT22;37709;53.480;9.688;2022-07-06T01:51:45;12.70;99.90
2407;DHT22;37709;53.480;9.688;2022-07-06T01:54:13;12.70;99.90
2407;DHT22;37709;53.480;9.688;2022-07-06T01:56:41;12.70;99.90
2407;DHT22;37709;53.480;9.688;2022-07-06T01:59:09;12.60;99.90
2407;DHT22;37709;53.480;9.688;2022-07-06T02:01:37;12.60;99.90
2407;DHT22;37709;53.480;9.688;2022-07-06T02:04:05;12.50;99.90
2407;DHT22;37709;53.480;9.688;2022-07-06T02:06:33;12.50;99.90
2407;DHT22;37709;53.480;9.688;2022-07-06T02:09:00;12.40;99.90
2407;DHT22;37709;53.480;9.688;2022-07-06T02:11:28;12.30;99.90
2407;DHT22;37709;53.480;9.688;2022-07-06T02:13:55;12.30;99.90
2407;DHT22;37709;53.480;9.688;2022-07-06T02:16:23;12.30;99.90
2407;DHT22;37709;53.480;9.688;2022-07-06T02:18:51;12.40;99.90
2407;DHT22;37709;53.480;9.688;2022-07-06T02:21:19;12.40;99.90
2407;DHT22;37709;53.480;9.688;2022-07-06T02:23:47;12.40;99.90
2407;DHT22;37709;53.480;9.688;2022-07-06T02:26:16;12.50;99.90
2407;DHT22;37709;53.480;9.688;2022-07-06T02:28:44;12.50;99.90
2407;DHT22;37709;53.480;9.688;2022-07-06T02:31:14;12.50;99.90
2407;DHT22;37709;53.480;9.688;2022-07-06T02:33:43;12.50;99.90
2407;DHT22;37709;53.480;9.688;2022-07-06T02:36:12;12.50;99.90
2407;DHT22;37709;53.480;9.688;2022-07-06T02:38:39;12.50;99.90
2407;DHT22;37709;53.480;9.688;2022-07-06T02:41:06;12.50;99.90
2407;DHT22;37709;53.480;9.688;2022-07-06T02:43:34;12.50;99.90
2407;DHT22;37709;53.480;9.688;2022-07-06T02:46:01;12.50;99.90
2407;DHT22;37709;53.480;9.688;2022-07-06T02:48:29;12.50;99.90
2407;DHT22;37709;53.480;9.688;2022-07-06T02:50:57;12.60;99.90
2407;DHT22;37709;53.480;9.688;2022-07-06T02:53:26;12.60;99.90
2407;DHT22;37709;53.480;9.688;2022-07-06T02:55:55;12.60;99.90
2407;DHT22;37709;53.480;9.688;2022-07-06T02:58:23;12.60;99.90
2407;DHT22;37709;53.480;9.688;2022-07-06T03:00:52;12.60;99.90
2407;DHT22;37709;53.480;9.688;2022-07-06T03:03:19;12.60;99.90
2407;DHT22;37709;53.480;9.688;2022-07-06T03:05:47;12.60;99.90
2407;DHT22;37709;53.480;9.688;2022-07-06T03:08:21;12.60;99.90
2407;DHT22;37709;53.480;9.688;2022-07-06T03:10:50;12.70;99.90
2407;DHT22;37709;53.480;9.688;2022-07-06T03:13:17;12.70;99.90
2407;DHT22;37709;53.480;9.688;2022-07-06T03:15:46;12.70;99.90
2407;DHT22;37709;53.480;9.688;2022-07-06T03:18:14;12.70;99.90
2407;DHT22;37709;53.480;9.688;2022-07-06T03:20:42;12.70;99.90
2407;DHT22;37709;53.480;9.688;2022-07-06T03:23:12;12.70;99.90
2407;DHT22;37709;53.480;9.688;2022-07-06T03:25:40;12.80;99.90
2407;DHT22;37709;53.480;9.688;2022-07-06T03:28:08;12.80;99.90
2407;DHT22;37709;53.480;9.688;2022-07-06T03:30:36;12.80;99.90
2407;DHT22;37709;53.480;9.688;2022-07-06T03:33:04;12.80;99.90
2407;DHT22;37709;53.480;9.688;2022-07-06T03:35:33;12.80;99.90
2407;DHT22;37709;53.480;9.688;2022-07-06T03:38:03;12.80;99.90
2407;DHT22;37709;53.480;9.688;2022-07-06T03:40:32;12.80;99.90
2407;DHT22;37709;53.480;9.688;2022-07-06T03:43:00;12.80;99.90
2407;DHT22;37709;53.480;9.688;2022-07-06T03:45:31;12.90;99.90
2407;DHT22;37709;53.480;9.688;2022-07-06T03:48:00;12.90;99.90
2407;DHT22;37709;53.480;9.688;2022-07-06T03:50:30;12.90;99.90
2407;DHT22;37709;53.480;9.688;2022-07-06T03:52:58;12.90;99.90
2407;DHT22;37709;53.480;9.688;2022-07-06T03:55:27;13.00;99.90
2407;DHT22;37709;53.480;9.688;2022-07-06T03:57:58;13.00;99.90
2407;DHT22;37709;53.480;9.688;2022-07-06T04:00:33;13.00;99.90
2407;DHT22;37709;53.480;9.688;2022-07-06T04:03:07;13.10;99.90
2407;DHT22;37709;53.480;9.688;2022-07-06T04:05:41;13.10;99.90
2407;DHT22;37709;53.480;9.688;2022-07-06T04:08:08;13.10;99.90
2407;DHT22;37709;53.480;9.688;2022-07-06T04:10:44;13.20;99.90
2407;DHT22;37709;53.480;9.688;2022-07-06T04:13:11;13.20;99.90
2407;DHT22;37709;53.480;9.688;2022-07-06T04:15:39;13.30;99.90
2407;DHT22;37709;53.480;9.688;2022-07-06T04:18:07;13.30;99.90
2407;DHT22;37709;53.480;9.688;2022-07-06T04:20:41;13.40;99.90
2407;DHT22;37709;53.480;9.688;2022-07-06T04:23:09;13.50;99.90
2407;DHT22;37709;53.480;9.688;2022-07-06T04:25:38;13.50;99.90
2407;DHT22;37709;53.480;9.688;2022-07-06T04:28:08;13.60;99.90
2407;DHT22;37709;53.480;9.688;2022-07-06T04:30:37;13.70;99.90
2407;DHT22;37709;53.480;9.688;2022-07-06T04:33:08;13.70;99.90
2407;DHT22;37709;53.480;9.688;2022-07-06T04:35:36;13.70;99.90
2407;DHT22;37709;53.480;9.688;2022-07-06T04:38:06;13.70;99.90
2407;DHT22;37709;53.480;9.688;2022-07-06T04:40:36;13.80;99.90
2407;DHT22;37709;53.480;9.688;2022-07-06T04:43:08;13.80;99.90
2407;DHT22;37709;53.480;9.688;2022-07-06T04:45:36;13.90;99.90
2407;DHT22;37709;53.480;9.688;2022-07-06T04:48:32;14.00;99.90
2407;DHT22;37709;53.480;9.688;2022-07-06T04:51:04;14.10;99.90
2407;DHT22;37709;53.480;9.688;2022-07-06T04:53:32;14.30;99.90
2407;DHT22;37709;53.480;9.688;2022-07-06T04:56:00;14.20;99.90
2407;DHT22;37709;53.480;9.688;2022-07-06T04:58:55;14.30;99.90
2407;DHT22;37709;53.480;9.688;2022-07-06T05:01:23;14.30;99.90
2407;DHT22;37709;53.480;9.688;2022-07-06T05:03:53;14.40;99.90
2407;DHT22;37709;53.480;9.688;2022-07-06T05:06:22;14.50;99.90
2407;DHT22;37709;53.480;9.688;2022-07-06T05:08:50;14.50;99.90
2407;DHT22;37709;53.480;9.688;2022-07-06T05:11:19;14.60;99.90
2407;DHT22;37709;53.480;9.688;2022-07-06T05:13:48;14.60;99.90
2407;DHT22;37709;53.480;9.688;2022-07-06T05:16:16;14.70;99.90
2407;DHT22;37709;53.480;9.688;2022-07-06T05:18:44;14.70;99.90
2407;DHT22;37709;53.480;9.688;2022-07-06T05:21:13;14.80;99.90
2407;DHT22;37709;53.480;9.688;2022-07-06T05:23:40;14.80;99.90
2407;DHT22;37709;53.480;9.688;2022-07-06T05:26:08;14.70;99.90
2407;DHT22;37709;53.480;9.688;2022-07-06T05:28:36;14.80;99.90
2407;DHT22;37709;53.480;9.688;2022-07-06T05:31:07;15.00;99.90
2407;DHT22;37709;53.480;9.688;2022-07-06T05:33:35;15.20;99.90
2407;DHT22;37709;53.480;9.688;2022-07-06T05:36:03;15.30;99.90
2407;DHT22;37709;53.480;9.688;2022-07-06T05:38:31;15.30;99.90
2407;DHT22;37709;53.480;9.688;2022-07-06T05:41:00;15.40;99.90
2407;DHT22;37709;53.480;9.688;2022-07-06T05:43:28;15.40;99.90
2407;DHT22;37709;53.480;9.688;2022-07-06T05:45:58;15.60;99.90
2407;DHT22;37709;53.480;9.688;2022-07-06T05:48:29;15.70;99.90
2407;DHT22;37709;53.480;9.688;2022-07-06T05:51:16;15.90;99.90
2407;DHT22;37709;53.480;9.688;2022-07-06T05:53:45;16.00;99.90
2407;DHT22;37709;53.480;9.688;2022-07-06T05:56:13;16.00;99.90
2407;DHT22;37709;53.480;9.688;2022-07-06T05:59:11;16.10;99.90
2407;DHT22;37709;53.480;9.688;2022-07-06T06:01:42;16.30;99.90
2407;DHT22;37709;53.480;9.688;2022-07-06T06:04:14;16.50;99.90
2407;DHT22;37709;53.480;9.688;2022-07-06T06:06:42;16.60;99.90
2407;DHT22;37709;53.480;9.688;2022-07-06T06:09:10;16.70;99.90
2407;DHT22;37709;53.480;9.688;2022-07-06T06:11:37;16.90;99.90
2407;DHT22;37709;53.480;9.688;2022-07-06T06:14:05;17.00;99.90
2407;DHT22;37709;53.480;9.688;2022-07-06T06:16:34;16.90;99.90
2407;DHT22;37709;53.480;9.688;2022-07-06T06:19:02;16.80;99.90
2407;DHT22;37709;53.480;9.688;2022-07-06T06:21:32;16.80;99.90
2407;DHT22;37709;53.480;9.688;2022-07-06T06:24:00;16.90;99.90
2407;DHT22;37709;53.480;9.688;2022-07-06T06:26:28;17.00;99.90
2407;DHT22;37709;53.480;9.688;2022-07-06T06:28:55;17.20;99.90
2407;DHT22;37709;53.480;9.688;2022-07-06T06:31:23;17.30;99.90
2407;DHT22;37709;53.480;9.688;2022-07-06T06:33:50;17.60;99.90
2407;DHT22;37709;53.480;9.688;2022-07-06T06:36:20;17.80;99.90
2407;DHT22;37709;53.480;9.688;2022-07-06T06:38:47;17.90;99.90
2407;DHT22;37709;53.480;9.688;2022-07-06T06:41:22;17.70;99.90
2407;DHT22;37709;53.480;9.688;2022-07-06T06:43:50;17.90;99.90
2407;DHT22;37709;53.480;9.688;2022-07-06T06:46:22;18.10;99.90
2407;DHT22;37709;53.480;9.688;2022-07-06T06:48:49;18.30;99.90
2407;DHT22;37709;53.480;9.688;2022-07-06T06:51:17;18.50;99.90
2407;DHT22;37709;53.480;9.688;2022-07-06T06:53:47;18.70;99.90
2407;DHT22;37709;53.480;9.688;2022-07-06T06:56:16;19.00;99.90
2407;DHT22;37709;53.480;9.688;2022-07-06T06:58:44;19.30;99.90
2407;DHT22;37709;53.480;9.688;2022-07-06T07:01:31;19.60;99.90
2407;DHT22;37709;53.480;9.688;2022-07-06T07:04:00;19.90;99.90
2407;DHT22;37709;53.480;9.688;2022-07-06T07:06:27;20.20;99.90
2407;DHT22;37709;53.480;9.688;2022-07-06T07:08:55;20.20;99.90
2407;DHT22;37709;53.480;9.688;2022-07-06T07:11:23;20.20;99.90
2407;DHT22;37709;53.480;9.688;2022-07-06T07:13:52;20.50;99.90
2407;DHT22;37709;53.480;9.688;2022-07-06T07:16:20;20.60;99.90
2407;DHT22;37709;53.480;9.688;2022-07-06T07:18:48;20.50;99.90
2407;DHT22;37709;53.480;9.688;2022-07-06T07:21:15;20.30;99.90
2407;DHT22;37709;53.480;9.688;2022-07-06T07:23:43;20.30;99.90
2407;DHT22;37709;53.480;9.688;2022-07-06T07:26:10;20.20;99.90
2407;DHT22;37709;53.480;9.688;2022-07-06T07:28:37;20.10;99.90
2407;DHT22;37709;53.480;9.688;2022-07-06T07:31:05;20.50;99.90
2407;DHT22;37709;53.480;9.688;2022-07-06T07:33:33;20.60;99.90
2407;DHT22;37709;53.480;9.688;2022-07-06T07:36:01;20.60;99.90
2407;DHT22;37709;53.480;9.688;2022-07-06T07:38:30;20.80;99.90
2407;DHT22;37709;53.480;9.688;2022-07-06T07:40:57;21.00;99.80
2407;DHT22;37709;53.480;9.688;2022-07-06T07:43:25;21.10;99.00
2407;DHT22;37709;53.480;9.688;2022-07-06T07:45:52;21.00;98.90
2407;DHT22;37709;53.480;9.688;2022-07-06T07:48:20;21.20;99.00
2407;DHT22;37709;53.480;9.688;2022-07-06T07:50:48;20.90;99.20
2407;DHT22;37709;53.480;9.688;2022-07-06T07:53:15;21.10;99.70
2407;DHT22;37709;53.480;9.688;2022-07-06T07:55:43;21.30;99.50
2407;DHT22;37709;53.480;9.688;2022-07-06T07:58:37;21.40;99.00
2407;DHT22;37709;53.480;9.688;2022-07-06T08:01:05;20.80;98.50
2407;DHT22;37709;53.480;9.688;2022-07-06T08:03:33;20.50;99.10
2407;DHT22;37709;53.480;9.688;2022-07-06T08:06:00;20.30;99.70
2407;DHT22;37709;53.480;9.688;2022-07-06T08:08:28;20.00;99.90
2407;DHT22;37709;53.480;9.688;2022-07-06T08:10:55;19.50;99.90
2407;DHT22;37709;53.480;9.688;2022-07-06T08:13:47;18.80;99.90
2407;DHT22;37709;53.480;9.688;2022-07-06T08:16:14;17.60;99.90
2407;DHT22;37709;53.480;9.688;2022-07-06T08:18:42;16.20;99.90
2407;DHT22;37709;53.480;9.688;2022-07-06T08:21:09;15.50;99.90
2407;DHT22;37709;53.480;9.688;2022-07-06T08:23:54;15.10;99.90
2407;DHT22;37709;53.480;9.688;2022-07-06T08:26:24;15.00;99.90
2407;DHT22;37709;53.480;9.688;2022-07-06T08:28:52;14.80;99.90
2407;DHT22;37709;53.480;9.688;2022-07-06T08:31:45;14.70;99.90
2407;DHT22;37709;53.480;9.688;2022-07-06T08:34:22;14.60;99.90
2407;DHT22;37709;53.480;9.688;2022-07-06T08:36:52;14.70;99.90
2407;DHT22;37709;53.480;9.688;2022-07-06T08:39:20;14.90;99.90
2407;DHT22;37709;53.480;9.688;2022-07-06T08:41:48;14.90;99.90
2407;DHT22;37709;53.480;9.688;2022-07-06T08:44:17;14.90;99.90
2407;DHT22;37709;53.480;9.688;2022-07-06T08:46:45;14.90;99.90
2407;DHT22;37709;53.480;9.688;2022-07-06T08:49:16;14.90;99.90
2407;DHT22;37709;53.480;9.688;2022-07-06T08:51:45;15.00;99.90
2407;DHT22;37709;53.480;9.688;2022-07-06T08:54:12;15.10;99.90
2407;DHT22;37709;53.480;9.688;2022-07-06T08:56:41;15.20;99.90
2407;DHT22;37709;53.480;9.688;2022-07-06T08:59:17;15.30;99.90
2407;DHT22;37709;53.480;9.688;2022-07-06T09:01:45;15.50;99.90
2407;DHT22;37709;53.480;9.688;2022-07-06T09:04:19;15.60;99.90
2407;DHT22;37709;53.480;9.688;2022-07-06T09:06:49;15.70;99.90
2407;DHT22;37709;53.480;9.688;2022-07-06T09:09:23;16.00;99.90
2407;DHT22;37709;53.480;9.688;2022-07-06T09:11:51;16.80;99.90
2407;DHT22;37709;53.480;9.688;2022-07-06T09:14:19;17.80;99.90
2407;DHT22;37709;53.480;9.688;2022-07-06T09:17:02;18.40;99.90
2407;DHT22;37709;53.480;9.688;2022-07-06T09:19:33;18.80;99.90
2407;DHT22;37709;53.480;9.688;2022-07-06T09:22:01;19.10;99.90
2407;DHT22;37709;53.480;9.688;2022-07-06T09:24:29;19.30;99.90
2407;DHT22;37709;53.480;9.688;2022-07-06T09:26:59;19.20;99.90
2407;DHT22;37709;53.480;9.688;2022-07-06T09:29:29;19.20;99.90
2407;DHT22;37709;53.480;9.688;2022-07-06T09:32:02;19.40;99.90
2407;DHT22;37709;53.480;9.688;2022-07-06T09:34:44;19.90;99.90
2407;DHT22;37709;53.480;9.688;2022-07-06T09:37:17;20.20;99.90
2407;DHT22;37709;53.480;9.688;2022-07-06T09:39:52;20.40;99.90
2407;DHT22;37709;53.480;9.688;2022-07-06T09:42:25;20.30;99.90
2407;DHT22;37709;53.480;9.688;2022-07-06T09:44:57;20.30;99.90
2407;DHT22;37709;53.480;9.688;2022-07-06T09:47:26;20.60;99.90
2407;DHT22;37709;53.480;9.688;2022-07-06T09:49:55;21.00;99.90
2407;DHT22;37709;53.480;9.688;2022-07-06T09:52:23;21.50;99.90
2407;DHT22;37709;53.480;9.688;2022-07-06T09:54:50;21.80;99.90
2407;DHT22;37709;53.480;9.688;2022-07-06T09:57:21;22.10;99.00
2407;DHT22;37709;53.480;9.688;2022-07-06T09:59:50;22.00;99.90
2407;DHT22;37709;53.480;9.688;2022-07-06T10:02:20;22.60;98.50
2407;DHT22;37709;53.480;9.688;2022-07-06T10:04:54;22.90;98.40
2407;DHT22;37709;53.480;9.688;2022-07-06T10:07:25;23.40;96.70
2407;DHT22;37709;53.480;9.688;2022-07-06T10:09:54;24.10;96.50
2407;DHT22;37709;53.480;9.688;2022-07-06T10:12:25;25.30;93.30
2407;DHT22;37709;53.480;9.688;2022-07-06T10:14:52;25.70;94.30
2407;DHT22;37709;53.480;9.688;2022-07-06T10:17:21;26.50;92.90
2407;DHT22;37709;53.480;9.688;2022-07-06T10:19:49;26.80;90.60
2407;DHT22;37709;53.480;9.688;2022-07-06T10:22:20;27.00;90.40
2407;DHT22;37709;53.480;9.688;2022-07-06T10:24:48;27.90;85.20
2407;DHT22;37709;53.480;9.688;2022-07-06T10:27:16;27.80;84.00
2407;DHT22;37709;53.480;9.688;2022-07-06T10:29:44;27.50;83.60
2407;DHT22;37709;53.480;9.688;2022-07-06T10:32:12;27.00;84.30
2407;DHT22;37709;53.480;9.688;2022-07-06T10:34:45;26.50;86.00
2407;DHT22;37709;53.480;9.688;2022-07-06T10:37:23;25.60;85.70
2407;DHT22;37709;53.480;9.688;2022-07-06T10:39:52;23.70;89.70
2407;DHT22;37709;53.480;9.688;2022-07-06T10:42:43;22.80;91.50
2407;DHT22;37709;53.480;9.688;2022-07-06T10:45:13;22.70;92.60
2407;DHT22;37709;53.480;9.688;2022-07-06T10:47:42;22.90;92.90
2407;DHT22;37709;53.480;9.688;2022-07-06T10:50:10;23.30;92.00
2407;DHT22;37709;53.480;9.688;2022-07-06T10:52:57;23.70;91.90
2407;DHT22;37709;53.480;9.688;2022-07-06T10:55:31;24.80;92.00
2407;DHT22;37709;53.480;9.688;2022-07-06T10:57:59;26.10;89.90
2407;DHT22;37709;53.480;9.688;2022-07-06T11:00:54;26.20;83.00
2407;DHT22;37709;53.480;9.688;2022-07-06T11:06:22;27.20;72.80
2407;DHT22;37709;53.480;9.688;2022-07-06T11:09:02;29.50;68.60
2407;DHT22;37709;53.480;9.688;2022-07-06T11:14:07;32.20;56.70
2407;DHT22;37709;53.480;9.688;2022-07-06T11:21:48;31.10;53.80
2407;DHT22;37709;53.480;9.688;2022-07-06T11:24:21;29.00;56.10
2407;DHT22;37709;53.480;9.688;2022-07-06T11:26:54;26.90;59.40
2407;DHT22;37709;53.480;9.688;2022-07-06T11:29:48;25.20;63.80
2407;DHT22;37709;53.480;9.688;2022-07-06T11:32:23;23.90;69.90
2407;DHT22;37709;53.480;9.688;2022-07-06T11:34:51;23.40;70.90
2407;DHT22;37709;53.480;9.688;2022-07-06T11:37:19;23.20;73.30
2407;DHT22;37709;53.480;9.688;2022-07-06T11:39:48;23.50;73.00
2407;DHT22;37709;53.480;9.688;2022-07-06T11:42:17;23.90;73.40
2407;DHT22;37709;53.480;9.688;2022-07-06T11:44:45;25.40;73.10
2407;DHT22;37709;53.480;9.688;2022-07-06T11:47:13;29.20;64.20
2407;DHT22;37709;53.480;9.688;2022-07-06T11:49:51;33.10;57.80
2407;DHT22;37709;53.480;9.688;2022-07-06T11:52:19;34.80;50.70
2407;DHT22;37709;53.480;9.688;2022-07-06T11:54:47;36.60;47.40
2407;DHT22;37709;53.480;9.688;2022-07-06T11:57:15;35.90;45.70
2407;DHT22;37709;53.480;9.688;2022-07-06T11:59:43;33.40;47.50
2407;DHT22;37709;53.480;9.688;2022-07-06T12:02:15;30.30;50.80
2407;DHT22;37709;53.480;9.688;2022-07-06T12:04:47;28.10;54.90
2407;DHT22;37709;53.480;9.688;2022-07-06T12:07:16;27.00;57.10
2407;DHT22;37709;53.480;9.688;2022-07-06T12:09:45;26.00;58.80
2407;DHT22;37709;53.480;9.688;2022-07-06T12:12:13;25.20;60.80
2407;DHT22;37709;53.480;9.688;2022-07-06T12:14:45;25.40;61.70
2407;DHT22;37709;53.480;9.688;2022-07-06T12:17:14;26.10;59.40
2407;DHT22;37709;53.480;9.688;2022-07-06T12:19:44;29.70;55.40
2407;DHT22;37709;53.480;9.688;2022-07-06T12:22:24;32.10;50.50
2407;DHT22;37709;53.480;9.688;2022-07-06T12:24:52;34.00;46.20
2407;DHT22;37709;53.480;9.688;2022-07-06T12:27:22;35.50;43.50
2407;DHT22;37709;53.480;9.688;2022-07-06T12:29:49;36.60;42.20
2407;DHT22;37709;53.480;9.688;2022-07-06T12:32:21;33.10;44.50
2407;DHT22;37709;53.480;9.688;2022-07-06T12:35:04;29.80;48.30
2407;DHT22;37709;53.480;9.688;2022-07-06T12:37:33;28.10;53.20
2407;DHT22;37709;53.480;9.688;2022-07-06T12:40:01;26.90;54.80
2407;DHT22;37709;53.480;9.688;2022-07-06T12:42:30;26.50;56.40
2407;DHT22;37709;53.480;9.688;2022-07-06T12:44:57;26.70;54.80
2407;DHT22;37709;53.480;9.688;2022-07-06T12:47:25;27.10;54.50
2407;DHT22;37709;53.480;9.688;2022-07-06T12:50:10;26.70;54.60
2407;DHT22;37709;53.480;9.688;2022-07-06T12:52:39;25.90;55.30
2407;DHT22;37709;53.480;9.688;2022-07-06T12:55:07;25.00;57.10
2407;DHT22;37709;53.480;9.688;2022-07-06T12:57:46;24.50;58.20
2407;DHT22;37709;53.480;9.688;2022-07-06T13:00:19;25.20;56.70
2407;DHT22;37709;53.480;9.688;2022-07-06T13:02:48;24.80;57.60
2407;DHT22;37709;53.480;9.688;2022-07-06T13:05:37;24.00;58.90
2407;DHT22;37709;53.480;9.688;2022-07-06T13:08:06;25.60;56.60
2407;DHT22;37709;53.480;9.688;2022-07-06T13:10:34;28.20;53.60
2407;DHT22;37709;53.480;9.688;2022-07-06T13:13:03;30.80;48.20
2407;DHT22;37709;53.480;9.688;2022-07-06T13:15:30;31.70;46.20
2407;DHT22;37709;53.480;9.688;2022-07-06T13:17:57;29.50;48.50
2407;DHT22;37709;53.480;9.688;2022-07-06T13:20:26;27.60;50.60
2407;DHT22;37709;53.480;9.688;2022-07-06T13:22:55;26.40;52.90
2407;DHT22;37709;53.480;9.688;2022-07-06T13:25:24;26.30;52.80
2407;DHT22;37709;53.480;9.688;2022-07-06T13:27:51;25.50;55.30
2407;DHT22;37709;53.480;9.688;2022-07-06T13:30:19;24.70;56.40
2407;DHT22;37709;53.480;9.688;2022-07-06T13:32:47;24.70;57.70
2407;DHT22;37709;53.480;9.688;2022-07-06T13:35:16;27.30;54.20
2407;DHT22;37709;53.480;9.688;2022-07-06T13:37:45;29.50;49.60
2407;DHT22;37709;53.480;9.688;2022-07-06T13:40:16;30.10;48.60
2407;DHT22;37709;53.480;9.688;2022-07-06T13:42:44;29.20;48.10
2407;DHT22;37709;53.480;9.688;2022-07-06T13:45:11;27.40;50.80
2407;DHT22;37709;53.480;9.688;2022-07-06T13:47:39;26.30;53.60
2407;DHT22;37709;53.480;9.688;2022-07-06T13:50:07;25.60;55.10
2407;DHT22;37709;53.480;9.688;2022-07-06T13:52:34;26.70;53.80
2407;DHT22;37709;53.480;9.688;2022-07-06T13:55:04;27.10;53.20
2407;DHT22;37709;53.480;9.688;2022-07-06T13:57:32;26.80;54.40
2407;DHT22;37709;53.480;9.688;2022-07-06T13:59:59;28.40;51.00
2407;DHT22;37709;53.480;9.688;2022-07-06T14:02:26;29.60;49.30
2407;DHT22;37709;53.480;9.688;2022-07-06T14:04:54;30.90;48.30
2407;DHT22;37709;53.480;9.688;2022-07-06T14:07:23;31.30;46.70
2407;DHT22;37709;53.480;9.688;2022-07-06T14:09:54;31.30;47.10
2407;DHT22;37709;53.480;9.688;2022-07-06T14:12:22;29.40;48.80
2407;DHT22;37709;53.480;9.688;2022-07-06T14:15:18;29.20;50.50
2407;DHT22;37709;53.480;9.688;2022-07-06T14:17:46;28.00;51.40
2407;DHT22;37709;53.480;9.688;2022-07-06T14:20:17;27.10;53.50
2407;DHT22;37709;53.480;9.688;2022-07-06T14:22:50;26.10;55.80
2407;DHT22;37709;53.480;9.688;2022-07-06T14:25:17;25.50;58.20
2407;DHT22;37709;53.480;9.688;2022-07-06T14:27:45;25.90;57.10
2407;DHT22;37709;53.480;9.688;2022-07-06T14:30:17;26.40;55.80
2407;DHT22;37709;53.480;9.688;2022-07-06T14:32:45;26.50;55.50
2407;DHT22;37709;53.480;9.688;2022-07-06T14:35:15;26.90;55.20
2407;DHT22;37709;53.480;9.688;2022-07-06T14:37:47;27.10;55.00
2407;DHT22;37709;53.480;9.688;2022-07-06T14:40:15;27.50;54.30
2407;DHT22;37709;53.480;9.688;2022-07-06T14:42:42;27.70;53.30
2407;DHT22;37709;53.480;9.688;2022-07-06T14:45:10;28.40;52.80
2407;DHT22;37709;53.480;9.688;2022-07-06T14:47:37;28.40;52.90
2407;DHT22;37709;53.480;9.688;2022-07-06T14:50:05;28.40;53.30
2407;DHT22;37709;53.480;9.688;2022-07-06T14:52:32;28.50;53.30
2407;DHT22;37709;53.480;9.688;2022-07-06T14:55:00;28.10;53.90
2407;DHT22;37709;53.480;9.688;2022-07-06T15:01:53;27.00;54.70
2407;DHT22;37709;53.480;9.688;2022-07-06T15:04:21;26.30;56.40
2407;DHT22;37709;53.480;9.688;2022-07-06T15:06:49;26.30;56.10
2407;DHT22;37709;53.480;9.688;2022-07-06T15:09:26;25.60;56.10
2407;DHT22;37709;53.480;9.688;2022-07-06T15:11:55;24.90;57.40
2407;DHT22;37709;53.480;9.688;2022-07-06T15:14:25;24.50;58.90
2407;DHT22;37709;53.480;9.688;2022-07-06T15:16:53;23.90;57.90
2407;DHT22;37709;53.480;9.688;2022-07-06T15:19:21;23.60;58.80
2407;DHT22;37709;53.480;9.688;2022-07-06T15:21:52;24.00;59.00
2407;DHT22;37709;53.480;9.688;2022-07-06T15:24:24;24.40;58.90
2407;DHT22;37709;53.480;9.688;2022-07-06T15:26:55;25.20;55.10
2407;DHT22;37709;53.480;9.688;2022-07-06T15:29:22;25.90;53.50
2407;DHT22;37709;53.480;9.688;2022-07-06T15:31:50;26.00;53.10
2407;DHT22;37709;53.480;9.688;2022-07-06T15:34:18;26.10;53.50
2407;DHT22;37709;53.480;9.688;2022-07-06T15:36:45;26.20;54.10
2407;DHT22;37709;53.480;9.688;2022-07-06T15:39:13;26.50;53.00
2407;DHT22;37709;53.480;9.688;2022-07-06T15:41:40;26.40;53.70
2407;DHT22;37709;53.480;9.688;2022-07-06T15:44:11;26.70;52.00
2407;DHT22;37709;53.480;9.688;2022-07-06T15:46:38;26.60;51.80
2407;DHT22;37709;53.480;9.688;2022-07-06T15:49:10;26.30;51.50
2407;DHT22;37709;53.480;9.688;2022-07-06T15:51:38;26.20;51.40
2407;DHT22;37709;53.480;9.688;2022-07-06T15:54:06;25.60;52.30
2407;DHT22;37709;53.480;9.688;2022-07-06T15:56:38;25.00;52.10
2407;DHT22;37709;53.480;9.688;2022-07-06T15:59:06;24.60;54.20
2407;DHT22;37709;53.480;9.688;2022-07-06T16:01:33;24.60;54.80
2407;DHT22;37709;53.480;9.688;2022-07-06T16:04:01;24.00;55.00
2407;DHT22;37709;53.480;9.688;2022-07-06T16:06:28;23.70;55.90
2407;DHT22;37709;53.480;9.688;2022-07-06T16:08:58;23.60;56.30
2407;DHT22;37709;53.480;9.688;2022-07-06T16:11:25;23.30;56.20
2407;DHT22;37709;53.480;9.688;2022-07-06T16:13:53;23.20;57.20
2407;DHT22;37709;53.480;9.688;2022-07-06T16:16:24;23.20;56.60